Latest Weather Observations for Newdegate

IDW60801

Issued at 6:35 am WST Tuesday 21 October 2014 (issued every 30 minutes, with the page automatically refreshed every 10 minutes)

About weather observations | Map of weather stations | Latest weather observations for WA | Other Formats
Station Details ID: 010692 Name: NEWDEGATE RESEARCH STATION Lat: -33.11 Lon: 118.84 Height: 320.0 m
Data from the previous 72 hours. | See also: Recent months at Newdegate
Date/Time
WST
Temp
°C
App
Temp
°C
Dew
Point
Rel
Hum
%
Delta-T
°C
Wind Press
QNH
hPa
Press
MSL
hPa
Rain
since 9 am
mm
Dir
 
Spd
km/h
Gust
km/h
Spd
kts
Gust
kts
21/06:30am 10.1 8.5 8.9 92 0.6 SW 7 9 4 5 1021.9 1021.5 2.0
21/06:00am 10.0 8.4 8.8 92 0.6 SW 7 11 4 6 1021.6 1021.2 2.0
21/05:30am 9.7 7.3 8.5 92 0.6 SW 11 17 6 9 1021.2 1020.8 2.0
21/05:00am 9.9 7.5 8.7 92 0.6 SW 11 17 6 9 1020.5 1020.1 2.0
21/04:30am 9.8 7.0 8.6 92 0.6 SW 13 19 7 10 1020.1 1019.7 2.0
21/04:00am 9.2 7.6 7.8 91 0.7 WSW 6 7 3 4 1019.9 1019.5 2.0
21/03:30am 9.4 7.6 8.0 91 0.7 WSW 7 9 4 5 1019.8 1019.4 2.0
21/03:00am 8.2 6.3 6.7 90 0.7 WSW 6 7 3 4 1019.6 1019.2 2.0
21/02:30am 9.2 7.9 7.6 90 0.8 WSW 4 6 2 3 1019.5 1019.1 2.0
21/02:00am 9.6 8.0 8.0 90 0.8 SW 6 9 3 5 1019.7 1019.3 2.0
21/01:30am 9.8 8.2 8.1 89 0.8 WSW 6 9 3 5 1019.6 1019.2 2.0
21/01:00am 10.5 9.1 8.8 89 0.9 W 6 7 3 4 1019.5 1019.1 2.0
21/12:30am 10.9 9.0 9.0 88 1.0 SW 9 15 5 8 1019.5 1019.1 2.0
21/12:00am 11.3 8.3 9.4 88 1.0 SW 15 19 8 10 1019.8 1019.4 2.0
 
Date/Time
WST
Temp
°C
App
Temp
°C
Dew
Point
Rel
Hum
%
Delta-T
°C
Wind Press
QNH
hPa
Press
MSL
hPa
Rain
since 9 am
mm
Dir
 
Spd
km/h
Gust
km/h
Spd
kts
Gust
kts
20/11:30pm 11.5 8.2 9.6 88 1.0 SW 17 20 9 11 1019.5 1019.1 2.0
20/11:00pm 11.7 9.2 9.6 87 1.1 SW 13 15 7 8 1019.6 1019.2 2.0
20/10:30pm 12.1 9.9 9.5 84 1.3 SW 11 15 6 8 1019.5 1019.1 2.0
20/10:00pm 13.2 10.4 10.0 81 1.7 SSW 15 20 8 11 1019.5 1019.1 2.0
20/09:30pm 13.6 12.1 10.6 82 1.6 SW 9 13 5 7 1019.5 1019.1 2.0
20/09:00pm 14.1 11.9 10.9 81 1.7 SSW 13 19 7 10 1019.6 1019.2 2.0
20/08:30pm 14.8 13.4 12.1 84 1.5 SSW 11 15 6 8 1019.4 1019.0 2.0
20/08:00pm 14.7 13.7 12.4 86 1.3 SW 9 15 5 8 1019.0 1018.5 2.0
20/07:30pm 14.8 12.8 12.7 87 1.2 SW 15 19 8 10 1018.4 1018.0 2.0
20/07:00pm 14.7 11.8 12.4 86 1.3 SW 19 26 10 14 1017.9 1017.5 2.0
20/06:30pm 15.4 12.0 12.5 83 1.6 SW 22 32 12 17 1017.8 1017.4 2.0
20/06:00pm 16.3 13.7 12.1 76 2.3 W 17 28 9 15 1016.9 1016.5 2.0
20/05:30pm 17.5 13.9 12.0 70 3.1 WSW 22 30 12 16 1016.4 1015.9 2.0
20/05:00pm 17.7 14.2 12.2 70 3.1 SW 22 30 12 16 1015.8 1015.3 2.0
20/04:30pm 17.1 14.4 13.0 77 2.3 W 19 26 10 14 1015.3 1014.9 2.0
20/04:10pm 17.0 12.2 11.7 71 2.9 WSW 28 48 15 26 1015.2 1014.8 2.0
20/04:00pm 19.8 17.1 13.5 67 3.7 WSW 20 30 11 16 1014.8 1014.4 2.0
20/03:30pm 19.6 16.1 13.5 68 3.5 WSW 24 32 13 17 1014.3 1013.9 2.0
20/03:00pm 17.6 15.0 13.9 79 2.1 WSW 20 33 11 18 1014.2 1013.8 2.0
20/02:30pm 17.3 13.2 13.8 80 2.0 WSW 28 37 15 20 1014.2 1013.8 2.0
20/02:00pm 18.7 16.6 15.2 80 2.1 W 20 35 11 19 1013.7 1013.2 2.0
20/01:30pm 16.9 15.7 14.0 83 1.7 W 13 22 7 12 1013.7 1013.2 1.6
20/01:00pm 19.6 18.1 15.3 76 2.6 WNW 17 24 9 13 1013.7 1013.2 0.4
20/12:30pm 18.5 16.3 14.8 79 2.2 WNW 20 28 11 15 1013.6 1013.1 0.4
20/12:00pm 16.5 14.6 14.2 86 1.3 WNW 17 28 9 15 1013.7 1013.2 0.4
20/11:30am 16.1 13.2 13.9 87 1.3 NW 22 33 12 18 1013.7 1013.2 0.2
20/11:00am 15.6 13.1 13.6 88 1.1 WNW 19 26 10 14 1013.8 1013.3 0.2
20/10:30am 15.6 12.9 12.9 84 1.5 WNW 19 30 10 16 1013.7 1013.2 0.2
20/10:00am 15.0 12.3 13.0 88 1.1 WNW 19 24 10 13 1013.7 1013.2 0.2
20/09:30am 13.9 10.8 12.1 89 1.0 WNW 20 28 11 15 1013.6 1013.1 0.0
20/09:00am 13.3 10.7 11.9 91 0.8 WNW 17 24 9 13 1013.9 1013.4 10.8
20/08:30am 13.1 10.1 11.8 92 0.7 WNW 19 28 10 15 1013.6 1013.1 10.8
20/08:00am 12.5 9.3 11.2 92 0.7 WNW 19 26 10 14 1013.3 1012.8 10.8
20/07:30am 12.0 9.5 10.9 93 0.6 WNW 15 26 8 14 1013.2 1012.7 10.8
20/07:00am 11.8 9.2 10.7 93 0.6 WNW 15 20 8 11 1013.0 1012.5 10.8
20/06:30am 11.4 9.1 10.3 93 0.6 WNW 13 20 7 11 1012.9 1012.4 10.8
20/06:00am 11.2 8.4 10.1 93 0.6 NW 15 22 8 12 1012.6 1012.1 10.6
20/05:30am 11.1 8.7 10.0 93 0.6 NW 13 20 7 11 1012.0 1011.6 10.6
20/05:00am 11.1 8.7 10.0 93 0.6 NW 13 19 7 10 1011.6 1011.2 10.6
20/04:30am 11.0 8.9 9.8 92 0.6 NW 11 17 6 9 1011.3 1010.9 10.6
20/04:00am 11.2 9.2 10.0 92 0.6 WNW 11 15 6 8 1010.9 1010.4 10.6
20/03:30am 11.4 9.8 10.1 92 0.7 WNW 9 17 5 9 1010.6 1010.1 10.4
20/03:00am 11.4 9.0 10.1 92 0.7 W 13 19 7 10 1010.6 1010.1 10.4
20/02:30am 11.2 8.8 10.0 92 0.6 WNW 13 17 7 9 1010.5 1010.0 10.4
20/02:00am 11.4 9.4 10.1 92 0.7 WNW 11 19 6 10 1010.5 1010.0 10.4
20/01:30am 11.8 9.9 10.5 92 0.7 WNW 11 17 6 9 1010.8 1010.3 10.4
20/01:00am 12.0 9.8 10.7 92 0.7 WNW 13 17 7 9 1010.6 1010.1 10.4
20/12:30am 12.2 10.8 10.9 92 0.7 W 9 15 5 8 1010.5 1010.0 10.4
20/12:00am 12.2 11.2 10.9 92 0.7 WNW 7 11 4 6 1010.6 1010.1 10.2
 
Date/Time
WST
Temp
°C
App
Temp
°C
Dew
Point
Rel
Hum
%
Delta-T
°C
Wind Press
QNH
hPa
Press
MSL
hPa
Rain
since 9 am
mm
Dir
 
Spd
km/h
Gust
km/h
Spd
kts
Gust
kts
19/11:30pm 12.1 10.6 10.7 91 0.7 NNW 9 11 5 6 1010.7 1010.2 10.2
19/11:00pm 12.2 11.7 10.8 91 0.7 NW 4 6 2 3 1011.1 1010.6 10.2
19/10:30pm 12.2 11.7 10.8 91 0.7 NW 4 7 2 4 1011.0 1010.5 10.2
19/10:00pm 12.2 10.8 10.8 91 0.7 WNW 9 13 5 7 1011.1 1010.6 10.2
19/09:30pm 12.3 10.9 10.9 91 0.7 WNW 9 15 5 8 1011.1 1010.6 10.2
19/09:00pm 11.9 9.6 10.3 90 0.8 WNW 13 19 7 10 1011.4 1011.0 10.2
19/08:30pm 11.1 10.3 9.5 90 0.8 NNW 4 11 2 6 1011.1 1010.6 10.2
19/08:00pm 11.6 9.6 10.0 90 0.8 E 11 17 6 9 1010.6 1010.1 10.2
19/07:30pm 11.8 9.1 10.2 90 0.8 SE 15 20 8 11 1010.4 1009.9 10.2
19/07:00pm 11.9 9.5 10.1 89 0.9 S 13 15 7 8 1010.5 1010.0 9.0
19/06:30pm 12.6 9.2 10.5 87 1.1 SSW 19 26 10 14 1010.8 1010.3 4.2
19/06:00pm 14.5 12.9 12.7 89 1.0 S 13 19 7 10 1010.5 1010.0 4.0
19/05:30pm 14.8 12.8 12.8 88 1.1 SE 15 20 8 11 1009.9 1009.4 4.0
19/05:00pm 14.9 11.5 12.6 86 1.3 ESE 22 33 12 18 1010.1 1009.6 3.8
19/04:30pm 15.3 11.4 13.2 87 1.2 ESE 26 35 14 19 1009.9 1009.4 3.8
19/04:00pm 15.8 12.6 14.2 90 0.9 ESE 24 33 13 18 1009.8 1009.3 3.8
19/03:48pm 14.9 10.6 13.3 90 0.9 ESE 28 46 15 25 1010.0 1009.5 3.8
19/03:30pm 14.4 11.7 12.8 90 0.9 ESE 19 33 10 18 1010.2 1009.7 3.8
19/03:00pm 14.5 10.5 13.0 91 0.8 ESE 26 33 14 18 1010.2 1009.7 3.8
19/02:30pm 14.8 10.5 13.2 90 0.9 ESE 28 37 15 20 1010.5 1010.0 3.8
19/02:00pm 14.4 10.3 12.8 90 0.9 ESE 26 37 14 20 1010.8 1010.3 3.8
19/01:30pm 14.2 9.3 12.6 90 0.9 ESE 30 43 16 23 1011.2 1010.7 3.4
19/01:00pm 14.2 9.3 12.6 90 0.9 ESE 30 44 16 24 1011.2 1010.7 3.4
19/12:30pm 14.1 9.2 12.7 91 0.8 ESE 30 43 16 23 1011.8 1011.4 3.2
19/12:00pm 14.2 7.7 12.8 91 0.8 ESE 39 59 21 32 1012.2 1011.8 3.0
19/11:41am 13.6 7.6 12.2 91 0.8 ESE 35 54 19 29 1012.6 1012.1 3.0
19/11:30am 13.8 7.9 12.4 91 0.8 ESE 35 50 19 27 1012.6 1012.1 3.0
19/11:15am 13.5 8.1 12.1 91 0.8 ESE 32 52 17 28 1012.8 1012.3 2.8
19/11:00am 13.0 7.2 11.6 91 0.8 SE 33 48 18 26 1013.3 1012.8 2.8
19/10:30am 12.8 7.2 11.4 91 0.8 SE 32 44 17 24 1013.9 1013.4 2.8
19/10:00am 12.4 7.0 11.0 91 0.7 SE 30 39 16 21 1014.6 1014.2 2.0
19/09:30am 12.2 7.1 10.6 90 0.8 SE 28 37 15 20 1015.5 1015.1 1.2
19/09:00am 12.4 6.9 10.6 89 0.9 SE 30 43 16 23 1015.7 1015.2 8.8
19/08:30am 12.3 6.4 10.5 89 0.9 SE 32 43 17 23 1016.0 1015.5 8.4
19/08:00am 12.3 6.8 10.4 88 1.0 SE 30 43 16 23 1015.9 1015.4 7.8
19/07:30am 12.4 6.5 10.6 89 0.9 SE 32 46 17 25 1015.7 1015.2 7.8
19/07:11am 12.3 7.2 10.7 90 0.8 SE 28 46 15 25 1015.8 1015.3 7.8
19/07:00am 11.8 5.8 10.2 90 0.8 SE 32 43 17 23 1015.8 1015.3 7.8
19/06:30am 11.7 6.5 10.3 91 0.7 SE 28 43 15 23 1015.8 1015.3 7.6
19/06:00am 11.4 6.8 9.8 90 0.8 ESE 24 35 13 19 1016.2 1015.7 7.2
19/05:30am 11.4 6.9 10.0 91 0.7 ESE 24 33 13 18 1016.2 1015.7 7.0
19/05:00am 11.5 7.4 10.1 91 0.7 ESE 22 32 12 17 1016.1 1015.6 6.8
19/04:30am 11.4 7.3 10.0 91 0.7 ESE 22 32 12 17 1016.0 1015.5 6.8
19/04:00am 11.5 8.0 10.1 91 0.7 ESE 19 30 10 16 1016.1 1015.6 6.6
19/03:30am 11.3 7.1 9.9 91 0.7 SE 22 32 12 17 1015.8 1015.3 6.6
19/03:00am 11.4 7.7 10.0 91 0.7 SE 20 32 11 17 1016.2 1015.7 6.4
19/02:30am 11.3 7.5 9.9 91 0.7 SE 20 30 11 16 1016.2 1015.7 6.4
19/02:00am 11.3 7.1 9.9 91 0.7 SE 22 30 12 16 1016.3 1015.8 6.4
19/01:30am 11.2 7.0 9.8 91 0.7 SE 22 32 12 17 1016.4 1015.9 6.4
19/01:00am 11.1 6.9 9.7 91 0.7 SE 22 32 12 17 1016.7 1016.3 6.4
19/12:30am 11.2 6.2 9.6 90 0.8 ESE 26 37 14 20 1017.2 1016.8 6.2
19/12:00am 11.5 7.9 9.8 89 0.9 ESE 19 24 10 13 1017.7 1017.3 6.0
 
Date/Time
WST
Temp
°C
App
Temp
°C
Dew
Point
Rel
Hum
%
Delta-T
°C
Wind Press
QNH
hPa
Press
MSL
hPa
Rain
since 9 am
mm
Dir
 
Spd
km/h
Gust
km/h
Spd
kts
Gust
kts
18/11:30pm 11.8 7.9 9.5 86 1.2 SE 20 30 11 16 1018.0 1017.6 6.0
18/11:00pm 11.7 7.8 9.6 87 1.1 ESE 20 32 11 17 1018.2 1017.8 6.0
18/10:30pm 11.5 7.2 9.4 87 1.1 SE 22 33 12 18 1018.2 1017.8 6.0
18/10:00pm 11.4 6.8 9.5 88 1.0 ESE 24 37 13 20 1018.0 1017.6 6.0
18/09:30pm 11.6 6.7 9.9 89 0.9 ESE 26 39 14 21 1017.7 1017.3 6.0
18/09:00pm 11.6 7.1 9.9 89 0.9 ESE 24 37 13 20 1017.6 1017.2 6.0
18/08:30pm 11.6 7.4 9.7 88 1.0 ESE 22 32 12 17 1017.7 1017.3 5.8
18/08:00pm 11.5 6.9 9.6 88 1.0 ESE 24 41 13 22 1018.5 1018.1 5.8
18/07:30pm 11.6 6.7 9.9 89 0.9 SE 26 39 14 21 1017.9 1017.5 5.8
18/07:00pm 11.7 7.2 9.9 89 0.9 SE 24 33 13 18 1017.0 1016.6 5.8
18/06:30pm 11.8 6.9 10.0 89 0.9 SE 26 32 14 17 1016.1 1015.6 5.8
18/06:00pm 12.5 8.0 10.2 86 1.2 SE 24 39 13 21 1015.5 1015.1 5.8
18/05:30pm 13.2 8.3 9.8 80 1.8 SE 26 43 14 23 1015.0 1014.6 5.8
18/05:00pm 13.9 8.7 10.1 78 2.0 SE 28 39 15 21 1014.6 1014.2 5.8
18/04:30pm 13.9 8.2 9.7 76 2.2 SSE 30 39 16 21 1013.9 1013.4 5.8
18/04:00pm 14.7 9.1 10.1 74 2.4 SE 30 41 16 22 1013.8 1013.3 5.8
18/03:30pm 15.6 10.0 11.4 76 2.3 SE 32 48 17 26 1013.3 1012.8 5.8
18/03:00pm 15.0 9.9 10.6 75 2.4 SSE 28 39 15 21 1013.7 1013.2 5.8
18/02:30pm 15.1 9.1 10.7 75 2.4 SE 33 44 18 24 1013.2 1012.7 5.8
18/02:00pm 14.5 10.1 11.7 83 1.5 SSE 26 37 14 20 1014.1 1013.7 5.8
18/01:30pm 13.3 8.1 10.3 82 1.6 SE 28 41 15 22 1014.5 1014.1 5.8
18/01:00pm 13.3 7.8 10.5 83 1.5 SE 30 39 16 21 1014.0 1013.6 5.8
18/12:30pm 13.5 9.1 11.7 89 1.0 SSE 26 37 14 20 1014.1 1013.7 5.8
18/12:00pm 13.2 8.0 11.6 90 0.9 SE 30 44 16 24 1013.5 1013.0 5.8
18/11:30am 12.9 8.4 11.5 91 0.8 SE 26 43 14 23 1013.4 1012.9 5.8
18/11:00am 12.7 7.4 11.3 91 0.8 SE 30 44 16 24 1013.0 1012.5 5.4
18/10:30am 12.4 8.6 11.0 91 0.7 SE 22 33 12 18 1013.8 1013.3 3.6
18/10:00am 12.5 7.5 11.1 91 0.7 SE 28 41 15 22 1013.2 1012.7 2.2
18/09:30am 12.7 8.2 11.3 91 0.8 SSE 26 39 14 21 1013.5 1013.0 0.8
18/09:00am 12.5 8.3 11.2 92 0.7 SE 24 35 13 19 1013.3 1012.8 28.8
18/08:30am 12.3 8.5 11.0 92 0.7 SSE 22 33 12 18 1013.2 1012.7 27.8
18/08:00am 12.2 7.9 10.9 92 0.7 S 24 33 13 18 1013.4 1012.9 24.4
18/07:30am 12.3 8.1 11.0 92 0.7 S 24 32 13 17 1013.4 1012.9 21.4
18/07:00am 12.3 8.1 11.0 92 0.7 SSE 24 33 13 18 1013.4 1012.9 17.4

Other Formats:

Comma delimited format used in spreadsheet applications
http://www.bom.gov.au/fwo/IDW60801/IDW60801.94628.axf

JavaScript Object Notation format (JSON) in row-major order
http://www.bom.gov.au/fwo/IDW60801/IDW60801.94628.json